createdAt,value
2023-01-01T00:01:30.937Z,64.20
2023-01-01T00:04:02.469Z,64.30
2023-01-01T00:06:32.793Z,64.20
2023-01-01T00:09:21.113Z,64.30
2023-01-01T00:11:53.457Z,64.30
2023-01-01T00:14:24.018Z,64.30
2023-01-01T00:16:58.065Z,64.40
2023-01-01T00:19:28.339Z,64.30
2023-01-01T00:22:02.065Z,64.30
2023-01-01T00:24:35.822Z,64.40
2023-01-01T00:27:06.113Z,64.30
2023-01-01T00:29:36.333Z,64.40
2023-01-01T00:32:10.136Z,64.30
2023-01-01T00:34:41.846Z,64.30
2023-01-01T00:37:13.253Z,64.40
2023-01-01T00:39:44.100Z,64.40
2023-01-01T00:42:14.311Z,64.40
2023-01-01T00:44:44.809Z,64.40
2023-01-01T00:47:15.260Z,64.60
2023-01-01T00:49:45.629Z,64.70
2023-01-01T00:52:15.825Z,65.10
2023-01-01T00:54:46.130Z,65.90
2023-01-01T00:57:16.364Z,66.20
2023-01-01T00:59:46.622Z,67.00
2023-01-01T01:02:16.992Z,67.50
2023-01-01T01:04:47.334Z,68.00
2023-01-01T01:07:17.536Z,68.20
2023-01-01T01:09:47.875Z,68.60
2023-01-01T01:12:19.234Z,68.90
2023-01-01T01:14:49.974Z,69.20
2023-01-01T01:17:20.192Z,68.90
2023-01-01T01:19:50.405Z,68.90
2023-01-01T01:22:24.331Z,68.80
2023-01-01T01:24:59.164Z,68.70
2023-01-01T01:27:29.811Z,68.40
2023-01-01T01:30:00.198Z,68.20
2023-01-01T01:32:30.833Z,68.10
2023-01-01T01:35:01.040Z,67.90
2023-01-01T01:37:31.997Z,67.80
2023-01-01T01:40:02.237Z,67.70
2023-01-01T01:42:32.517Z,67.60
2023-01-01T01:45:04.754Z,67.60
2023-01-01T01:47:35.104Z,67.40
2023-01-01T01:50:18.750Z,67.40
2023-01-01T01:52:56.720Z,67.30
2023-01-01T01:55:30.457Z,67.30
2023-01-01T01:58:01.254Z,67.30
2023-01-01T02:00:32.080Z,67.20
2023-01-01T02:03:34.536Z,67.20
2023-01-01T02:06:06.183Z,67.10
2023-01-01T02:08:37.908Z,67.00
2023-01-01T02:11:08.262Z,66.90
2023-01-01T02:13:38.922Z,66.80
2023-01-01T02:16:29.975Z,66.70
2023-01-01T02:19:32.092Z,66.70
2023-01-01T02:22:18.640Z,67.40
2023-01-01T02:25:06.928Z,66.70
2023-01-01T02:27:57.991Z,66.60
2023-01-01T02:30:29.805Z,66.70
2023-01-01T02:33:15.870Z,66.60
2023-01-01T02:35:56.347Z,66.50
2023-01-01T02:38:38.147Z,66.70
2023-01-01T02:41:43.277Z,66.70
2023-01-01T02:44:14.976Z,66.40
2023-01-01T02:46:45.373Z,66.30
2023-01-01T02:49:15.559Z,64.70
2023-01-01T02:51:55.453Z,64.00
2023-01-01T02:54:35.379Z,62.80
2023-01-01T02:57:16.048Z,63.60
2023-01-01T03:00:16.325Z,63.90
2023-01-01T03:03:09.102Z,64.40
2023-01-01T03:06:30.600Z,64.70
2023-01-01T03:09:26.264Z,65.10
2023-01-01T03:12:20.144Z,65.00
2023-01-01T03:14:54.427Z,62.80
2023-01-01T03:17:34.717Z,61.70
2023-01-01T03:20:12.811Z,62.10
2023-01-01T03:25:23.100Z,62.90
2023-01-01T03:28:02.463Z,62.60
2023-01-01T03:30:37.693Z,62.90
2023-01-01T03:33:29.099Z,62.30
2023-01-01T03:36:08.815Z,62.40
2023-01-01T03:39:03.650Z,63.60
2023-01-01T03:41:55.090Z,62.90
2023-01-01T03:44:35.987Z,63.80
2023-01-01T03:47:08.727Z,63.70
2023-01-01T03:49:39.297Z,63.80
2023-01-01T03:52:53.340Z,63.80
2023-01-01T03:55:52.497Z,63.80
2023-01-01T03:58:51.776Z,63.80
2023-01-01T04:01:38.371Z,63.60
2023-01-01T04:04:10.279Z,63.00
2023-01-01T04:06:40.571Z,63.10
2023-01-01T04:09:18.742Z,63.10
2023-01-01T04:12:08.867Z,63.20
2023-01-01T04:14:43.802Z,63.00
2023-01-01T04:17:14.980Z,62.80
2023-01-01T04:19:48.841Z,62.70
2023-01-01T04:22:24.934Z,61.30
2023-01-01T04:24:55.200Z,61.90
2023-01-01T04:27:25.836Z,61.90
2023-01-01T04:29:56.031Z,61.70
2023-01-01T04:32:26.590Z,61.80
2023-01-01T04:34:57.150Z,61.70
2023-01-01T04:37:27.561Z,61.30
2023-01-01T04:39:57.939Z,60.70
2023-01-01T04:42:28.218Z,60.90
2023-01-01T04:44:58.492Z,60.90
2023-01-01T04:47:29.147Z,60.40
2023-01-01T04:49:59.414Z,60.00
2023-01-01T04:52:30.468Z,60.10
2023-01-01T04:55:00.786Z,59.00
2023-01-01T04:57:32.971Z,60.00
2023-01-01T05:00:03.399Z,59.50
2023-01-01T05:02:33.822Z,60.00
2023-01-01T05:05:04.107Z,59.90
2023-01-01T05:07:35.934Z,60.00
2023-01-01T05:10:06.508Z,59.80
2023-01-01T05:12:36.732Z,59.90
2023-01-01T05:15:10.233Z,60.10
2023-01-01T05:17:40.862Z,60.20
2023-01-01T05:20:11.586Z,60.50
2023-01-01T05:22:41.831Z,60.50
2023-01-01T05:25:12.284Z,60.50
2023-01-01T05:27:42.560Z,60.90
2023-01-01T05:30:13.430Z,61.10
2023-01-01T05:32:44.094Z,62.00
2023-01-01T05:35:14.470Z,61.40
2023-01-01T05:37:44.659Z,61.10
2023-01-01T05:40:15.156Z,61.00
2023-01-01T05:42:45.371Z,61.80
2023-01-01T05:45:15.569Z,61.70
2023-01-01T05:47:45.847Z,60.70
2023-01-01T05:50:16.169Z,61.00
2023-01-01T05:52:46.372Z,60.80
2023-01-01T05:55:16.613Z,60.50
2023-01-01T05:57:46.788Z,60.60
2023-01-01T06:00:17.654Z,60.40
2023-01-01T06:02:47.960Z,60.50
2023-01-01T06:05:18.477Z,60.70
2023-01-01T06:07:48.966Z,60.70
2023-01-01T06:10:19.400Z,60.60
2023-01-01T06:12:49.723Z,60.60
2023-01-01T06:15:20.054Z,60.10
2023-01-01T06:17:50.266Z,60.10
2023-01-01T06:20:20.588Z,60.10
2023-01-01T06:22:50.804Z,60.30
2023-01-01T06:25:21.010Z,60.50
2023-01-01T06:27:51.292Z,60.50
2023-01-01T06:30:21.643Z,60.60
2023-01-01T06:32:51.997Z,60.70
2023-01-01T06:35:22.283Z,60.70
2023-01-01T06:37:52.552Z,60.80
2023-01-01T06:40:22.832Z,60.50
2023-01-01T06:42:53.080Z,60.60
2023-01-01T06:45:23.375Z,60.80
2023-01-01T06:47:53.551Z,60.30
2023-01-01T06:50:23.777Z,60.50
2023-01-01T06:52:54.090Z,60.10
2023-01-01T06:55:24.324Z,59.80
2023-01-01T06:57:55.300Z,59.50
2023-01-01T07:00:25.618Z,58.60
2023-01-01T07:02:55.953Z,58.40
2023-01-01T07:05:26.245Z,57.90
2023-01-01T07:07:56.445Z,58.50
2023-01-01T07:10:26.640Z,58.50
2023-01-01T07:12:56.805Z,58.90
2023-01-01T07:15:27.034Z,59.20
2023-01-01T07:17:57.289Z,58.00
2023-01-01T07:20:27.479Z,58.50
2023-01-01T07:22:57.737Z,58.80
2023-01-01T07:25:27.965Z,58.90
2023-01-01T07:27:58.158Z,58.90
2023-01-01T07:30:28.372Z,58.80
2023-01-01T07:32:58.931Z,58.90
2023-01-01T07:35:29.212Z,58.90
2023-01-01T07:37:59.527Z,59.50
2023-01-01T07:40:29.853Z,59.70
2023-01-01T07:43:00.181Z,59.80
2023-01-01T07:45:30.509Z,60.20
2023-01-01T07:48:01.974Z,60.40
2023-01-01T07:50:34.262Z,60.60
2023-01-01T07:53:04.902Z,60.40
2023-01-01T07:55:38.319Z,60.20
2023-01-01T07:58:08.909Z,60.30
2023-01-01T08:00:39.186Z,60.20
2023-01-01T08:03:09.923Z,60.60
2023-01-01T08:05:41.226Z,59.80
2023-01-01T08:08:14.514Z,60.00
2023-01-01T08:10:44.708Z,60.20
2023-01-01T08:13:15.061Z,59.90
2023-01-01T08:15:45.365Z,59.80
2023-01-01T08:18:15.699Z,60.00
2023-01-01T08:20:45.947Z,59.90
2023-01-01T08:23:16.387Z,60.10
2023-01-01T08:25:46.618Z,60.00
2023-01-01T08:28:17.074Z,60.10
2023-01-01T08:30:47.254Z,60.00
2023-01-01T08:33:17.808Z,59.90
2023-01-01T08:35:53.725Z,59.90
2023-01-01T08:38:42.445Z,59.70
2023-01-01T08:41:13.187Z,59.80
2023-01-01T08:43:43.459Z,59.80
2023-01-01T08:46:13.732Z,59.70
2023-01-01T08:48:44.035Z,59.70
2023-01-01T08:51:14.346Z,59.70
2023-01-01T08:53:50.614Z,59.90
2023-01-01T08:56:22.127Z,60.10
2023-01-01T08:58:52.479Z,60.30
2023-01-01T09:01:29.511Z,60.40
2023-01-01T09:03:59.889Z,60.50
2023-01-01T09:06:30.148Z,60.60
2023-01-01T09:09:00.467Z,60.80
2023-01-01T09:11:31.453Z,61.10
2023-01-01T09:14:01.663Z,61.00
2023-01-01T09:16:32.059Z,61.30
2023-01-01T09:19:02.474Z,61.70
2023-01-01T09:21:32.709Z,62.10
2023-01-01T09:24:02.953Z,62.90
2023-01-01T09:26:33.565Z,63.00
2023-01-01T09:29:03.855Z,62.70
2023-01-01T09:31:34.161Z,63.00
2023-01-01T09:34:04.573Z,63.10
2023-01-01T09:36:35.794Z,63.10
2023-01-01T09:39:06.982Z,63.40
2023-01-01T09:41:46.474Z,63.50
2023-01-01T09:44:35.087Z,63.70
2023-01-01T09:47:12.785Z,63.70
2023-01-01T09:49:48.939Z,63.80
2023-01-01T09:52:21.686Z,63.90
2023-01-01T09:55:04.602Z,64.40
2023-01-01T09:57:35.136Z,65.20
2023-01-01T10:00:05.879Z,64.50
2023-01-01T10:02:57.271Z,64.50
2023-01-01T10:05:36.756Z,64.70
2023-01-01T10:08:39.175Z,65.50
2023-01-01T10:11:44.206Z,65.00
2023-01-01T10:14:45.840Z,65.20
2023-01-01T10:17:20.168Z,64.90
2023-01-01T10:20:03.384Z,64.90
2023-01-01T10:22:41.105Z,64.80
2023-01-01T10:25:21.550Z,64.50
2023-01-01T10:28:26.512Z,64.40
2023-01-01T10:31:21.248Z,64.20
2023-01-01T10:33:51.567Z,64.20
2023-01-01T10:36:22.781Z,64.10
2023-01-01T10:38:53.838Z,64.10
2023-01-01T10:41:24.173Z,63.90
2023-01-01T10:43:54.626Z,63.90
2023-01-01T10:46:31.938Z,63.80
2023-01-01T10:49:14.791Z,63.90
2023-01-01T10:51:55.971Z,63.80
2023-01-01T10:54:37.153Z,63.70
2023-01-01T10:57:17.725Z,63.80
2023-01-01T10:59:54.125Z,63.70
2023-01-01T11:02:25.935Z,63.80
2023-01-01T11:05:21.651Z,63.80
2023-01-01T11:07:53.026Z,63.60
2023-01-01T11:10:33.595Z,63.80
2023-01-01T11:13:05.486Z,63.70
2023-01-01T11:15:45.842Z,63.80
2023-01-01T11:18:19.571Z,63.70
2023-01-01T11:20:58.660Z,63.80
2023-01-01T11:23:38.270Z,63.70
2023-01-01T11:26:20.400Z,64.50
2023-01-01T11:29:05.543Z,63.70
2023-01-01T11:31:42.843Z,63.70
2023-01-01T11:34:37.697Z,63.70
2023-01-01T11:37:31.025Z,63.50
2023-01-01T11:40:03.202Z,63.50
2023-01-01T11:42:38.040Z,63.70
2023-01-01T11:45:38.080Z,63.70
2023-01-01T11:48:22.387Z,63.50
2023-01-01T11:51:06.629Z,63.60
2023-01-01T11:53:45.833Z,63.60
2023-01-01T11:56:22.648Z,63.60
2023-01-01T11:58:54.826Z,63.60
2023-01-01T12:01:31.063Z,63.70
2023-01-01T12:04:24.819Z,63.80
2023-01-01T12:07:26.630Z,63.50
2023-01-01T12:10:04.387Z,63.60
2023-01-01T12:13:06.438Z,63.60
2023-01-01T12:15:49.078Z,63.60
2023-01-01T12:18:35.190Z,63.60
2023-01-01T12:21:15.070Z,63.60
2023-01-01T12:23:45.472Z,63.60
2023-01-01T12:26:23.001Z,63.60
2023-01-01T12:28:59.288Z,63.60
2023-01-01T12:31:47.738Z,63.60
2023-01-01T12:34:22.479Z,63.60
2023-01-01T12:37:01.925Z,63.60
2023-01-01T12:39:50.041Z,63.60
2023-01-01T12:42:33.186Z,63.60
2023-01-01T12:45:41.469Z,63.60
2023-01-01T12:48:30.124Z,63.50
2023-01-01T12:51:04.992Z,63.70
2023-01-01T12:54:07.486Z,63.60
2023-01-01T12:56:46.850Z,63.50
2023-01-01T12:59:31.855Z,63.60
2023-01-01T13:02:05.856Z,63.50
2023-01-01T13:04:36.367Z,63.60
2023-01-01T13:07:12.024Z,63.50
2023-01-01T13:09:46.996Z,63.50
2023-01-01T13:12:26.176Z,63.50
2023-01-01T13:14:56.673Z,63.50
2023-01-01T13:17:32.269Z,63.50
2023-01-01T13:20:28.019Z,63.50
2023-01-01T13:22:58.286Z,63.40
2023-01-01T13:25:28.626Z,63.50
2023-01-01T13:27:58.877Z,63.50
2023-01-01T13:30:41.588Z,63.50
2023-01-01T13:33:26.530Z,63.40
2023-01-01T13:36:14.940Z,63.40
2023-01-01T13:38:58.113Z,63.40
2023-01-01T13:41:45.464Z,63.40
2023-01-01T13:44:21.906Z,63.40
2023-01-01T13:47:34.377Z,63.50
2023-01-01T13:50:44.012Z,63.40
2023-01-01T13:53:23.343Z,63.40
2023-01-01T13:55:59.552Z,63.50
2023-01-01T13:58:35.733Z,63.50
2023-01-01T14:01:44.293Z,63.50
2023-01-01T14:04:47.376Z,63.40
2023-01-01T14:07:50.646Z,63.50
2023-01-01T14:10:30.198Z,64.30
2023-01-01T14:13:10.079Z,63.50
2023-01-01T14:15:58.906Z,63.50
2023-01-01T14:18:40.597Z,63.60
2023-01-01T14:21:35.221Z,63.50
2023-01-01T14:24:09.236Z,63.40
2023-01-01T14:26:41.152Z,63.60
2023-01-01T14:29:27.483Z,63.50
2023-01-01T14:31:59.857Z,63.50
2023-01-01T14:34:38.958Z,63.60
2023-01-01T14:37:26.481Z,63.60
2023-01-01T14:40:34.664Z,63.50
2023-01-01T14:43:12.516Z,63.40
2023-01-01T14:45:46.625Z,63.70
2023-01-01T14:48:22.597Z,63.60
2023-01-01T14:50:55.329Z,63.60
2023-01-01T14:53:35.563Z,63.60
2023-01-01T14:56:08.722Z,63.60
2023-01-01T14:58:42.432Z,63.60
2023-01-01T15:01:24.740Z,63.60
2023-01-01T15:04:02.954Z,63.60
2023-01-01T15:06:34.524Z,63.60
2023-01-01T15:09:04.786Z,63.70
2023-01-01T15:11:35.291Z,63.70
2023-01-01T15:14:05.688Z,64.10
2023-01-01T15:16:40.238Z,63.70
2023-01-01T15:19:21.601Z,63.60
2023-01-01T15:21:51.913Z,63.50
2023-01-01T15:24:29.071Z,63.60
2023-01-01T15:27:06.862Z,63.60
2023-01-01T15:29:43.309Z,63.60
2023-01-01T15:32:16.658Z,63.60
2023-01-01T15:34:54.977Z,63.60
2023-01-01T15:37:47.381Z,63.60
2023-01-01T15:40:18.672Z,63.50
2023-01-01T15:42:59.499Z,63.60
2023-01-01T15:45:31.132Z,63.60
2023-01-01T15:48:34.325Z,63.60
2023-01-01T15:51:26.803Z,63.50
2023-01-01T15:54:01.485Z,63.50
2023-01-01T15:56:34.873Z,63.70
2023-01-01T15:59:16.239Z,63.60
2023-01-01T16:01:47.328Z,63.60
2023-01-01T16:04:27.735Z,63.60
2023-01-01T16:07:01.172Z,63.60
2023-01-01T16:09:31.454Z,63.60
2023-01-01T16:12:01.753Z,63.60
2023-01-01T16:14:32.365Z,63.60
2023-01-01T16:17:03.733Z,63.60
2023-01-01T16:19:35.423Z,63.60
2023-01-01T16:22:05.785Z,63.60
2023-01-01T16:24:38.646Z,63.60
2023-01-01T16:27:08.950Z,63.60
2023-01-01T16:29:42.481Z,63.60
2023-01-01T16:32:20.803Z,63.60
2023-01-01T16:34:51.421Z,63.60
2023-01-01T16:37:24.266Z,63.70
2023-01-01T16:39:54.576Z,63.60
2023-01-01T16:42:24.971Z,63.60
2023-01-01T16:44:56.310Z,63.70
2023-01-01T16:47:26.856Z,63.60
2023-01-01T16:49:57.103Z,63.70
2023-01-01T16:52:32.893Z,63.70
2023-01-01T16:55:04.021Z,63.70
2023-01-01T16:57:34.597Z,63.70
2023-01-01T17:00:05.421Z,63.70
2023-01-01T17:02:36.113Z,63.70
2023-01-01T17:05:06.894Z,63.70
2023-01-01T17:07:43.076Z,63.70
2023-01-01T17:10:13.295Z,63.70
2023-01-01T17:12:43.564Z,63.70
2023-01-01T17:15:13.955Z,63.70
2023-01-01T17:17:44.203Z,63.70
2023-01-01T17:20:14.515Z,63.70
2023-01-01T17:22:44.741Z,63.70
2023-01-01T17:25:15.041Z,63.70
2023-01-01T17:27:47.111Z,63.70
2023-01-01T17:30:17.847Z,63.70
2023-01-01T17:32:48.099Z,63.70
2023-01-01T17:35:18.387Z,63.70
2023-01-01T17:37:48.670Z,63.70
2023-01-01T17:40:19.149Z,63.70
2023-01-01T17:42:49.369Z,63.70
2023-01-01T17:45:19.668Z,63.70
2023-01-01T17:47:49.959Z,63.70
2023-01-01T17:50:21.398Z,63.70
2023-01-01T17:52:51.643Z,63.70
2023-01-01T17:55:21.945Z,63.70
2023-01-01T17:57:53.875Z,63.70
2023-01-01T18:00:24.302Z,63.70
2023-01-01T18:02:54.572Z,63.70
2023-01-01T18:05:25.010Z,63.70
2023-01-01T18:07:55.303Z,63.70
2023-01-01T18:10:25.699Z,63.70
2023-01-01T18:12:57.526Z,63.70
2023-01-01T18:15:28.198Z,63.70
2023-01-01T18:17:58.504Z,63.70
2023-01-01T18:20:28.908Z,63.70
2023-01-01T18:22:59.147Z,63.70
2023-01-01T18:25:29.932Z,63.70
2023-01-01T18:28:00.211Z,63.70
2023-01-01T18:30:30.435Z,63.70
2023-01-01T18:33:00.712Z,63.80
2023-01-01T18:35:31.002Z,63.80
2023-01-01T18:38:01.199Z,63.70
2023-01-01T18:40:35.467Z,63.70
2023-01-01T18:43:15.027Z,63.70
2023-01-01T18:45:45.474Z,63.70
2023-01-01T18:48:19.602Z,63.70
2023-01-01T18:50:50.127Z,63.70
2023-01-01T18:53:24.751Z,63.70
2023-01-01T18:56:11.982Z,63.70
2023-01-01T18:58:46.595Z,63.60
2023-01-01T19:01:23.481Z,63.70
2023-01-01T19:04:06.123Z,63.80
2023-01-01T19:06:36.378Z,63.70
2023-01-01T19:09:27.091Z,63.80
2023-01-01T19:11:58.150Z,63.60
2023-01-01T19:14:30.440Z,63.80
2023-01-01T19:17:03.836Z,63.70
2023-01-01T19:19:39.606Z,63.70
2023-01-01T19:22:30.800Z,63.70
2023-01-01T19:25:01.209Z,63.60
2023-01-01T19:27:35.988Z,63.80
2023-01-01T19:30:27.549Z,63.70
2023-01-01T19:32:57.821Z,63.90
2023-01-01T19:35:28.147Z,63.80
2023-01-01T19:37:58.387Z,63.70
2023-01-01T19:40:28.591Z,63.80
2023-01-01T19:43:03.342Z,63.70
2023-01-01T19:45:33.630Z,63.60
2023-01-01T19:48:03.900Z,63.80
2023-01-01T19:50:34.224Z,63.70
2023-01-01T19:53:04.517Z,63.80
2023-01-01T19:55:35.169Z,63.70
2023-01-01T19:58:05.586Z,63.80
2023-01-01T20:00:35.859Z,63.70
2023-01-01T20:03:42.920Z,63.70
2023-01-01T20:05:56.720Z,63.80
2023-01-01T20:08:28.631Z,63.80
2023-01-01T20:10:58.932Z,63.80
2023-01-01T20:13:29.543Z,63.70
2023-01-01T20:16:00.005Z,63.70
2023-01-01T20:18:30.520Z,63.70
2023-01-01T20:21:25.286Z,63.80
2023-01-01T20:23:57.302Z,63.80
2023-01-01T20:26:27.715Z,63.80
2023-01-01T20:29:15.933Z,64.60
2023-01-01T20:31:46.310Z,63.70
2023-01-01T20:34:16.830Z,63.80
2023-01-01T20:37:05.596Z,63.80
2023-01-01T20:39:36.455Z,63.80
2023-01-01T20:42:07.285Z,63.80
2023-01-01T20:44:37.638Z,63.80
2023-01-01T20:47:07.915Z,64.50
2023-01-01T20:49:38.251Z,63.80
2023-01-01T20:52:08.656Z,63.70
2023-01-01T20:54:39.353Z,63.80
2023-01-01T20:57:09.688Z,63.70
2023-01-01T20:59:40.139Z,63.80
2023-01-01T21:02:12.795Z,63.80
2023-01-01T21:04:43.790Z,63.60
2023-01-01T21:07:14.828Z,63.70
2023-01-01T21:09:45.853Z,63.60
2023-01-01T21:12:16.097Z,63.70
2023-01-01T21:14:47.060Z,63.80
2023-01-01T21:17:24.638Z,63.80
2023-01-01T21:19:57.637Z,63.80
2023-01-01T21:22:28.699Z,63.80
2023-01-01T21:25:24.094Z,63.80
2023-01-01T21:27:50.684Z,63.80
2023-01-01T21:30:22.001Z,63.80
2023-01-01T21:32:53.509Z,63.90
2023-01-01T21:35:37.017Z,63.80
2023-01-01T21:38:24.026Z,63.80
2023-01-01T21:41:05.611Z,63.80
2023-01-01T21:43:46.567Z,63.80
2023-01-01T21:46:41.149Z,64.10
2023-01-01T21:49:38.206Z,63.90
2023-01-01T21:52:21.749Z,63.90
2023-01-01T21:54:51.959Z,63.90
2023-01-01T21:57:26.619Z,64.00
2023-01-01T21:59:58.539Z,63.90
2023-01-01T22:02:40.044Z,64.00
2023-01-01T22:05:33.634Z,64.00
2023-01-01T22:08:27.833Z,63.50
2023-01-01T22:10:59.815Z,64.00
2023-01-01T22:13:30.904Z,64.10
2023-01-01T22:16:01.109Z,64.30
2023-01-01T22:18:33.002Z,64.10
2023-01-01T22:21:05.251Z,64.10
2023-01-01T22:23:42.050Z,64.20
2023-01-01T22:26:25.495Z,64.30
2023-01-01T22:29:04.126Z,64.40
2023-01-01T22:31:35.535Z,64.30
2023-01-01T22:34:08.422Z,64.40
2023-01-01T22:36:39.486Z,64.40
2023-01-01T22:39:29.490Z,64.40
2023-01-01T22:41:59.932Z,64.40
2023-01-01T22:44:30.801Z,64.50
2023-01-01T22:47:03.233Z,64.30
2023-01-01T22:49:39.832Z,64.20
2023-01-01T22:52:12.128Z,64.10
2023-01-01T22:54:42.695Z,64.10
2023-01-01T22:57:12.895Z,64.10
2023-01-01T22:59:43.150Z,64.10
2023-01-01T23:02:13.491Z,64.00
2023-01-01T23:04:43.820Z,64.10
2023-01-01T23:07:16.138Z,64.00
2023-01-01T23:09:46.563Z,64.00
2023-01-01T23:12:16.951Z,64.00
2023-01-01T23:15:05.381Z,64.00
2023-01-01T23:17:35.698Z,64.10
2023-01-01T23:20:06.949Z,64.10
2023-01-01T23:22:42.388Z,64.10
2023-01-01T23:25:15.502Z,64.00
2023-01-01T23:27:46.367Z,64.00
2023-01-01T23:30:17.223Z,64.00
2023-01-01T23:32:48.231Z,64.10
2023-01-01T23:35:18.956Z,64.00
2023-01-01T23:37:49.316Z,64.00
2023-01-01T23:40:19.841Z,64.10
2023-01-01T23:42:50.070Z,64.00
2023-01-01T23:45:20.475Z,64.00
2023-01-01T23:47:50.837Z,64.00
2023-01-01T23:50:21.478Z,64.00
2023-01-01T23:52:51.771Z,64.00
2023-01-01T23:55:22.066Z,63.90
2023-01-01T23:57:53.742Z,64.00
